createdAt,value
2022-11-22T00:00:46.675Z,9.23
2022-11-22T00:03:13.457Z,15.00
2022-11-22T00:05:40.483Z,12.30
2022-11-22T00:08:08.157Z,12.67
2022-11-22T00:10:38.075Z,10.70
2022-11-22T00:13:05.449Z,12.77
2022-11-22T00:15:32.178Z,14.53
2022-11-22T00:17:58.901Z,12.40
2022-11-22T00:20:26.464Z,11.10
2022-11-22T00:22:53.303Z,16.67
2022-11-22T00:25:20.068Z,18.77
2022-11-22T00:27:46.947Z,13.23
2022-11-22T00:30:14.303Z,19.50
2022-11-22T00:32:41.023Z,16.10
2022-11-22T00:35:08.161Z,21.90
2022-11-22T00:37:35.082Z,15.93
2022-11-22T00:40:02.570Z,15.20
2022-11-22T00:42:29.485Z,14.17
2022-11-22T00:44:56.524Z,17.50
2022-11-22T00:47:23.373Z,13.03
2022-11-22T00:49:51.050Z,12.60
2022-11-22T00:52:17.901Z,21.03
2022-11-22T00:54:48.828Z,13.13
2022-11-22T00:57:20.054Z,11.47
2022-11-22T00:59:47.016Z,9.27
2022-11-22T01:02:13.943Z,12.03
2022-11-22T01:04:40.804Z,13.80
2022-11-22T01:07:07.796Z,13.83
2022-11-22T01:09:34.694Z,17.17
2022-11-22T01:12:01.443Z,18.77
2022-11-22T01:14:28.178Z,10.87
2022-11-22T01:16:54.947Z,15.97
2022-11-22T01:19:21.774Z,19.13
2022-11-22T01:21:48.708Z,20.17
2022-11-22T01:24:15.468Z,11.93
2022-11-22T01:26:42.600Z,20.83
2022-11-22T01:29:10.178Z,11.80
2022-11-22T01:31:37.014Z,19.10
2022-11-22T01:34:05.559Z,15.17
2022-11-22T01:36:32.555Z,8.77
2022-11-22T01:38:59.261Z,13.50
2022-11-22T01:41:26.066Z,16.90
2022-11-22T01:43:52.988Z,9.40
2022-11-22T01:46:35.265Z,14.00
2022-11-22T01:49:09.605Z,7.30
2022-11-22T01:51:39.908Z,11.37
2022-11-22T01:54:10.204Z,10.53
2022-11-22T01:56:37.711Z,8.87
2022-11-22T01:59:08.947Z,11.50
2022-11-22T02:01:36.527Z,16.50
2022-11-22T02:04:04.371Z,12.83
2022-11-22T02:07:06.359Z,9.23
2022-11-22T02:09:34.541Z,7.37
2022-11-22T02:12:02.997Z,14.90
2022-11-22T02:14:30.485Z,15.33
2022-11-22T02:16:57.331Z,10.27
2022-11-22T02:19:36.860Z,7.33
2022-11-22T02:22:13.048Z,14.00
2022-11-22T02:24:45.288Z,10.13
2022-11-22T02:27:12.110Z,9.23
2022-11-22T02:29:39.065Z,8.77
2022-11-22T02:32:05.920Z,20.07
2022-11-22T02:34:42.679Z,10.77
2022-11-22T02:37:11.077Z,11.43
2022-11-22T02:39:38.547Z,4.57
2022-11-22T02:42:05.765Z,9.60
2022-11-22T02:44:32.544Z,10.10
2022-11-22T02:46:59.449Z,11.00
2022-11-22T02:49:27.359Z,7.93
2022-11-22T02:51:54.206Z,5.97
2022-11-22T02:54:21.420Z,12.73
2022-11-22T02:56:48.428Z,8.40
2022-11-22T02:59:15.649Z,9.10
2022-11-22T03:01:43.643Z,6.03
2022-11-22T03:04:10.585Z,15.43
2022-11-22T03:06:37.372Z,10.20
2022-11-22T03:09:04.268Z,7.73
2022-11-22T03:11:31.011Z,9.80
2022-11-22T03:13:58.009Z,12.07
2022-11-22T03:16:24.842Z,11.80
2022-11-22T03:18:51.608Z,9.10
2022-11-22T03:21:18.744Z,8.50
2022-11-22T03:23:45.446Z,11.57
2022-11-22T03:26:12.599Z,6.53
2022-11-22T03:28:39.551Z,11.23
2022-11-22T03:31:07.590Z,7.37
2022-11-22T03:33:35.374Z,6.40
2022-11-22T03:36:02.655Z,9.47
2022-11-22T03:38:29.864Z,8.93
2022-11-22T03:40:56.744Z,8.87
2022-11-22T03:43:23.836Z,9.03
2022-11-22T03:45:50.664Z,6.10
2022-11-22T03:48:17.841Z,10.50
2022-11-22T03:50:44.753Z,9.57
2022-11-22T03:53:11.968Z,8.03
2022-11-22T03:55:38.950Z,9.37
2022-11-22T03:58:06.418Z,8.20
2022-11-22T04:00:34.000Z,7.10
2022-11-22T04:03:00.936Z,10.67
2022-11-22T04:05:27.958Z,13.00
2022-11-22T04:07:58.287Z,9.33
2022-11-22T04:10:25.698Z,8.43
2022-11-22T04:12:52.627Z,7.60
2022-11-22T04:15:19.388Z,8.60
2022-11-22T04:17:48.363Z,6.03
2022-11-22T04:20:47.932Z,6.33
2022-11-22T04:23:15.713Z,8.80
2022-11-22T04:25:44.818Z,10.10
2022-11-22T04:28:12.780Z,12.63
2022-11-22T04:30:58.263Z,6.13
2022-11-22T04:33:25.567Z,10.23
2022-11-22T04:35:52.945Z,6.43
2022-11-22T04:38:20.035Z,8.70
2022-11-22T04:40:47.391Z,7.73
2022-11-22T04:43:42.084Z,11.47
2022-11-22T04:46:09.255Z,10.90
2022-11-22T04:48:36.593Z,6.13
2022-11-22T04:51:22.995Z,9.50
2022-11-22T04:53:49.938Z,8.13
2022-11-22T04:56:17.162Z,6.53
2022-11-22T04:58:44.276Z,12.37
2022-11-22T05:01:11.360Z,11.43
2022-11-22T05:03:38.329Z,7.77
2022-11-22T05:06:05.795Z,10.63
2022-11-22T05:08:32.820Z,11.50
2022-11-22T05:11:00.168Z,4.30
2022-11-22T05:13:34.346Z,8.40
2022-11-22T05:16:03.180Z,13.60
2022-11-22T05:18:30.261Z,6.97
2022-11-22T05:20:58.348Z,10.83
2022-11-22T05:23:43.516Z,14.77
2022-11-22T05:26:11.249Z,11.03
2022-11-22T05:28:39.466Z,9.67
2022-11-22T05:31:14.180Z,9.40
2022-11-22T05:33:42.329Z,6.73
2022-11-22T05:36:09.717Z,10.60
2022-11-22T05:38:38.224Z,14.07
2022-11-22T05:41:06.938Z,12.33
2022-11-22T05:43:33.885Z,6.07
2022-11-22T05:46:24.320Z,10.87
2022-11-22T05:48:52.471Z,13.13
2022-11-22T05:51:22.684Z,7.73
2022-11-22T05:53:49.497Z,8.00
2022-11-22T05:56:21.084Z,7.40
2022-11-22T05:58:48.058Z,11.63
2022-11-22T06:01:19.846Z,10.33
2022-11-22T06:03:47.300Z,10.30
2022-11-22T06:06:14.570Z,17.93
2022-11-22T06:08:45.069Z,6.50
2022-11-22T06:11:17.603Z,4.00
2022-11-22T06:13:46.269Z,6.73
2022-11-22T06:16:13.388Z,7.90
2022-11-22T06:18:40.295Z,11.87
2022-11-22T06:21:10.091Z,7.50
2022-11-22T06:23:37.059Z,8.33
2022-11-22T06:26:06.709Z,7.20
2022-11-22T06:28:35.351Z,7.87
2022-11-22T06:31:03.004Z,5.70
2022-11-22T06:33:29.837Z,8.70
2022-11-22T06:36:10.120Z,7.17
2022-11-22T06:38:37.259Z,8.13
2022-11-22T06:41:06.371Z,5.23
2022-11-22T06:43:34.107Z,11.03
2022-11-22T06:46:02.194Z,9.43
2022-11-22T06:48:33.963Z,6.37
2022-11-22T06:51:01.876Z,5.40
2022-11-22T06:53:46.207Z,7.73
2022-11-22T06:56:28.976Z,8.60
2022-11-22T06:58:56.638Z,11.93
2022-11-22T07:01:25.804Z,5.07
2022-11-22T07:03:58.304Z,5.60
2022-11-22T07:06:28.371Z,6.03
2022-11-22T07:08:55.519Z,5.33
2022-11-22T07:11:24.898Z,5.97
2022-11-22T07:13:52.048Z,6.07
2022-11-22T07:16:20.533Z,12.37
2022-11-22T07:18:47.998Z,6.63
2022-11-22T07:21:23.138Z,6.20
2022-11-22T07:23:52.259Z,8.70
2022-11-22T07:26:20.939Z,7.07
2022-11-22T07:28:48.338Z,13.10
2022-11-22T07:31:16.557Z,9.77
2022-11-22T07:33:43.985Z,8.27
2022-11-22T07:36:19.248Z,5.03
2022-11-22T07:38:48.186Z,6.83
2022-11-22T07:41:15.476Z,6.80
2022-11-22T07:43:42.725Z,6.40
2022-11-22T07:46:23.104Z,6.30
2022-11-22T07:48:50.547Z,9.83
2022-11-22T07:51:17.328Z,2.60
2022-11-22T07:53:44.176Z,6.23
2022-11-22T07:56:11.159Z,8.33
2022-11-22T07:58:38.539Z,10.70
2022-11-22T08:01:07.326Z,6.30
2022-11-22T08:03:34.644Z,6.40
2022-11-22T08:06:02.375Z,5.87
2022-11-22T08:08:29.864Z,7.03
2022-11-22T08:10:56.866Z,3.60
2022-11-22T08:13:24.455Z,7.80
2022-11-22T08:15:54.409Z,5.57
2022-11-22T08:18:22.082Z,7.60
2022-11-22T08:20:48.707Z,8.33
2022-11-22T08:23:15.619Z,8.00
2022-11-22T08:25:42.296Z,10.27
2022-11-22T08:28:09.218Z,6.33
2022-11-22T08:30:35.975Z,7.67
2022-11-22T08:33:02.978Z,8.63
2022-11-22T08:35:29.674Z,5.67
2022-11-22T08:37:57.580Z,8.93
2022-11-22T08:40:24.642Z,4.23
2022-11-22T08:42:54.720Z,9.37
2022-11-22T08:45:21.514Z,7.63
2022-11-22T08:47:49.196Z,8.40
2022-11-22T08:50:17.742Z,7.73
2022-11-22T08:52:44.889Z,11.63
2022-11-22T08:55:11.600Z,8.80
2022-11-22T08:57:40.775Z,19.90
2022-11-22T09:00:10.782Z,10.27
2022-11-22T09:02:37.860Z,7.73
2022-11-22T09:05:05.423Z,9.87
2022-11-22T09:10:19.194Z,8.43
2022-11-22T09:12:47.312Z,8.17
2022-11-22T09:15:14.678Z,12.57
2022-11-22T09:17:42.333Z,6.30
2022-11-22T09:20:10.124Z,5.23
2022-11-22T09:22:36.855Z,6.33
2022-11-22T09:25:05.985Z,7.40
2022-11-22T09:27:35.077Z,3.07
2022-11-22T09:30:02.199Z,3.63
2022-11-22T09:32:33.520Z,6.63
2022-11-22T09:35:01.051Z,4.07
2022-11-22T09:37:27.669Z,3.20
2022-11-22T09:39:54.452Z,4.70
2022-11-22T09:42:37.150Z,7.97
2022-11-22T09:45:26.243Z,3.60
2022-11-22T09:48:10.655Z,3.10
2022-11-22T09:51:03.517Z,3.17
2022-11-22T09:53:37.698Z,4.90
2022-11-22T09:56:09.549Z,5.00
2022-11-22T09:58:43.178Z,7.73
2022-11-22T10:01:41.051Z,4.73
2022-11-22T10:04:16.338Z,2.93
2022-11-22T10:06:45.714Z,2.23
2022-11-22T10:09:31.434Z,3.13
2022-11-22T10:12:02.789Z,6.83
2022-11-22T10:14:38.423Z,1.83
2022-11-22T10:17:26.459Z,3.13
2022-11-22T10:19:58.683Z,3.33
2022-11-22T10:22:29.673Z,11.57
2022-11-22T10:24:58.971Z,1.20
2022-11-22T10:27:31.322Z,10.40
2022-11-22T10:30:05.121Z,1.63
2022-11-22T10:32:55.869Z,4.37
2022-11-22T10:35:29.700Z,5.60
2022-11-22T10:38:05.162Z,4.67
2022-11-22T10:40:41.151Z,2.53
2022-11-22T10:43:29.398Z,3.23
2022-11-22T10:46:06.622Z,2.10
2022-11-22T10:49:06.365Z,3.20
2022-11-22T10:51:56.982Z,1.53
2022-11-22T10:54:46.614Z,2.53
2022-11-22T10:57:34.222Z,2.43
2022-11-22T11:00:26.228Z,5.53
2022-11-22T11:03:20.823Z,0.67
2022-11-22T11:07:04.791Z,5.00
2022-11-22T11:12:52.918Z,1.23
2022-11-22T11:15:25.241Z,0.60
2022-11-22T11:18:18.275Z,0.73
2022-11-22T11:20:47.677Z,1.97
2022-11-22T11:23:16.198Z,1.43
2022-11-22T11:25:45.129Z,0.60
2022-11-22T11:28:19.636Z,1.07
2022-11-22T11:30:49.155Z,1.87
2022-11-22T11:33:38.426Z,1.13
2022-11-22T11:36:23.209Z,0.53
2022-11-22T11:38:58.819Z,0.83
2022-11-22T11:41:30.883Z,3.80
2022-11-22T11:44:03.791Z,2.13
2022-11-22T11:46:45.626Z,2.03
2022-11-22T11:49:17.564Z,1.50
2022-11-22T11:51:44.275Z,4.87
2022-11-22T11:54:27.135Z,1.77
2022-11-22T11:57:05.067Z,1.27
2022-11-22T11:59:37.965Z,1.00
2022-11-22T12:02:11.185Z,2.73
2022-11-22T12:04:58.958Z,2.43
2022-11-22T12:07:27.959Z,4.60
2022-11-22T12:09:56.841Z,1.50
2022-11-22T12:12:46.075Z,0.93
2022-11-22T12:15:37.967Z,4.23
2022-11-22T12:18:14.177Z,4.53
2022-11-22T12:20:51.435Z,1.80
2022-11-22T12:23:24.856Z,6.60
2022-11-22T12:25:55.080Z,4.97
2022-11-22T12:28:24.622Z,2.93
2022-11-22T12:31:07.341Z,0.80
2022-11-22T12:33:41.287Z,1.60
2022-11-22T12:36:16.521Z,1.47
2022-11-22T12:38:45.276Z,4.13
2022-11-22T12:41:17.228Z,2.73
2022-11-22T12:43:53.771Z,2.63
2022-11-22T12:46:28.134Z,1.73
2022-11-22T12:48:58.962Z,1.83
2022-11-22T12:51:36.340Z,0.93
2022-11-22T12:54:08.485Z,1.83
2022-11-22T12:56:48.699Z,2.73
2022-11-22T12:59:21.921Z,3.47
2022-11-22T13:01:56.979Z,0.70
2022-11-22T13:04:31.961Z,0.83
2022-11-22T13:07:15.587Z,0.87
2022-11-22T13:09:57.679Z,0.50
2022-11-22T13:12:31.237Z,2.03
2022-11-22T13:14:59.048Z,1.00
2022-11-22T13:17:27.312Z,0.90
2022-11-22T13:20:17.125Z,0.77
2022-11-22T13:22:57.038Z,1.70
2022-11-22T13:25:31.163Z,5.57
2022-11-22T13:28:00.865Z,10.20
2022-11-22T13:30:29.662Z,1.80
2022-11-22T13:32:59.065Z,1.13
2022-11-22T13:35:38.598Z,1.33
2022-11-22T13:38:15.444Z,2.07
2022-11-22T13:40:47.109Z,1.60
2022-11-22T13:43:21.220Z,2.13
2022-11-22T13:45:59.673Z,0.90
2022-11-22T13:48:40.384Z,2.00
2022-11-22T13:51:12.905Z,0.80
2022-11-22T13:53:47.939Z,2.90
2022-11-22T13:56:15.927Z,4.03
2022-11-22T13:58:51.144Z,5.03
2022-11-22T14:01:36.846Z,1.23
2022-11-22T14:04:15.957Z,0.93
2022-11-22T14:06:49.281Z,2.20
2022-11-22T14:09:32.046Z,2.77
2022-11-22T14:12:01.981Z,1.57
2022-11-22T14:14:55.165Z,0.90
2022-11-22T14:17:43.959Z,2.17
2022-11-22T14:20:24.302Z,5.77
2022-11-22T14:23:42.239Z,1.63
2022-11-22T14:26:14.999Z,1.53
2022-11-22T14:29:12.991Z,3.53
2022-11-22T14:31:40.017Z,2.13
2022-11-22T14:34:19.073Z,1.63
2022-11-22T14:37:07.036Z,1.70
2022-11-22T14:39:47.564Z,2.63
2022-11-22T14:42:47.563Z,1.93
2022-11-22T14:45:36.349Z,4.13
2022-11-22T14:48:29.269Z,4.10
2022-11-22T14:51:04.843Z,5.57
2022-11-22T14:53:44.364Z,1.77
2022-11-22T14:56:28.253Z,4.53
2022-11-22T14:59:18.153Z,6.93
2022-11-22T15:01:48.137Z,5.00
2022-11-22T15:09:13.160Z,2.03
2022-11-22T15:09:21.285Z,6.93
2022-11-22T15:10:37.656Z,2.20
2022-11-22T15:13:12.373Z,3.13
2022-11-22T15:59:16.885Z,2.63
2022-11-22T16:01:44.025Z,2.03
2022-11-22T16:04:21.324Z,5.43
2022-11-22T16:06:49.004Z,5.27
2022-11-22T16:09:23.724Z,4.03
2022-11-22T16:11:54.333Z,5.07
2022-11-22T16:14:44.730Z,7.10
2022-11-22T16:17:28.404Z,9.33
2022-11-22T16:20:24.537Z,4.47
2022-11-22T16:23:03.531Z,7.03
2022-11-22T16:25:34.883Z,8.93
2022-11-22T16:28:19.077Z,4.57
2022-11-22T16:30:46.275Z,7.23
2022-11-22T16:33:13.245Z,5.67
2022-11-22T16:35:40.068Z,8.97
2022-11-22T16:38:10.828Z,10.83
2022-11-22T16:40:42.973Z,6.67
2022-11-22T16:43:17.934Z,12.60
2022-11-22T16:45:45.062Z,6.90
2022-11-22T16:48:30.826Z,12.10
2022-11-22T16:51:00.041Z,14.37
2022-11-22T16:53:29.215Z,10.20
2022-11-22T16:55:56.066Z,11.73
2022-11-22T16:58:23.814Z,11.50
2022-11-22T17:00:51.240Z,14.00
2022-11-22T17:03:20.311Z,7.37
2022-11-22T17:05:47.480Z,11.13
2022-11-22T17:08:17.028Z,10.83
2022-11-22T17:10:48.335Z,10.07
2022-11-22T17:13:25.426Z,13.30
2022-11-22T17:15:56.195Z,10.87
2022-11-22T17:18:23.089Z,14.07
2022-11-22T17:20:50.090Z,8.77
2022-11-22T17:23:30.500Z,7.83
2022-11-22T17:25:57.182Z,6.80
2022-11-22T17:28:24.052Z,8.87
2022-11-22T17:30:51.787Z,16.20
2022-11-22T17:33:18.546Z,10.47
2022-11-22T17:35:47.976Z,12.83
2022-11-22T17:38:15.004Z,10.30
2022-11-22T17:40:41.861Z,9.37
2022-11-22T17:43:10.377Z,11.67
2022-11-22T17:45:43.738Z,14.77
2022-11-22T17:48:11.634Z,15.40
2022-11-22T17:50:39.197Z,10.43
2022-11-22T17:53:06.585Z,7.73
2022-11-22T17:55:48.299Z,10.07
2022-11-22T17:58:20.234Z,7.43
2022-11-22T18:00:46.901Z,8.60
2022-11-22T18:03:14.002Z,10.03
2022-11-22T18:05:44.046Z,15.63
2022-11-22T18:08:11.142Z,9.40
2022-11-22T18:10:39.184Z,8.87
2022-11-22T18:13:20.767Z,14.67
2022-11-22T18:16:03.267Z,17.77
2022-11-22T18:21:22.112Z,10.63
2022-11-22T18:23:48.959Z,10.63
2022-11-22T18:26:38.177Z,16.03
2022-11-22T18:29:38.593Z,8.37
2022-11-22T18:31:52.594Z,9.47
2022-11-22T18:34:20.354Z,10.50
2022-11-22T18:37:04.297Z,10.23
2022-11-22T18:42:22.541Z,8.43
2022-11-22T18:44:49.305Z,16.20
2022-11-22T18:47:17.256Z,9.93
2022-11-22T18:49:44.233Z,9.27
2022-11-22T18:52:13.506Z,10.33
2022-11-22T18:54:43.791Z,10.17
2022-11-22T18:57:10.642Z,12.53
2022-11-22T18:59:37.650Z,10.17
2022-11-22T19:02:04.646Z,5.47
2022-11-22T19:04:31.629Z,11.27
2022-11-22T19:06:59.691Z,12.23
2022-11-22T19:09:26.463Z,9.40
2022-11-22T19:11:58.409Z,10.30
2022-11-22T19:14:29.171Z,14.17
2022-11-22T19:16:56.311Z,8.63
2022-11-22T19:19:24.354Z,7.77
2022-11-22T19:21:51.130Z,12.20
2022-11-22T19:24:17.820Z,16.70
2022-11-22T19:26:44.855Z,9.70
2022-11-22T19:29:11.830Z,9.90
2022-11-22T19:31:38.968Z,6.37
2022-11-22T19:34:05.933Z,8.30
2022-11-22T19:36:34.318Z,18.07
2022-11-22T19:39:05.539Z,13.37
2022-11-22T19:41:33.021Z,14.17
2022-11-22T19:44:00.316Z,9.30
2022-11-22T19:46:28.043Z,7.97
2022-11-22T19:48:56.839Z,7.73
2022-11-22T19:51:24.688Z,5.73
2022-11-22T19:53:58.908Z,13.67
2022-11-22T19:56:29.691Z,8.03
2022-11-22T19:58:57.929Z,8.87
2022-11-22T20:01:26.562Z,19.77
2022-11-22T20:03:57.047Z,9.77
2022-11-22T20:06:26.999Z,11.77
2022-11-22T20:08:53.873Z,8.73
2022-11-22T20:11:26.572Z,7.50
2022-11-22T20:13:53.427Z,9.93
2022-11-22T20:16:24.176Z,8.03
2022-11-22T20:18:58.916Z,7.27
2022-11-22T20:21:27.471Z,9.37
2022-11-22T20:23:55.364Z,11.33
2022-11-22T20:26:23.088Z,8.47
2022-11-22T20:28:55.348Z,11.33
2022-11-22T20:31:22.986Z,10.13
2022-11-22T20:33:53.893Z,11.60
2022-11-22T20:36:24.526Z,13.30
2022-11-22T20:38:52.376Z,11.13
2022-11-22T20:41:21.565Z,17.87
2022-11-22T20:43:49.709Z,9.73
2022-11-22T20:46:19.220Z,9.40
2022-11-22T20:48:47.218Z,7.47
2022-11-22T20:51:16.329Z,17.73
2022-11-22T20:53:43.806Z,9.00
2022-11-22T20:56:11.608Z,10.60
2022-11-22T20:58:38.703Z,10.37
2022-11-22T21:01:07.321Z,10.33
2022-11-22T21:03:34.899Z,14.03
2022-11-22T21:06:02.986Z,14.00
2022-11-22T21:08:30.162Z,7.87
2022-11-22T21:11:14.421Z,11.17
2022-11-22T21:13:42.480Z,10.90
2022-11-22T21:16:23.758Z,11.80
2022-11-22T21:18:55.682Z,16.20
2022-11-22T21:21:23.576Z,11.97
2022-11-22T21:23:52.658Z,15.07
2022-11-22T21:26:20.650Z,6.47
2022-11-22T21:28:47.799Z,17.00
2022-11-22T21:31:15.269Z,9.73
2022-11-22T21:33:42.830Z,10.40
2022-11-22T21:36:10.314Z,12.70
2022-11-22T21:38:38.671Z,13.03
2022-11-22T21:41:38.071Z,10.87
2022-11-22T21:43:57.070Z,10.20
2022-11-22T21:46:25.381Z,13.50
2022-11-22T21:48:52.621Z,10.20
2022-11-22T21:51:19.508Z,11.77
2022-11-22T21:53:46.339Z,8.33
2022-11-22T21:56:13.512Z,7.70
2022-11-22T21:58:40.530Z,8.43
2022-11-22T22:01:13.579Z,6.73
2022-11-22T22:03:41.381Z,9.67
2022-11-22T22:06:08.416Z,11.53
2022-11-22T22:08:35.589Z,11.20
2022-11-22T22:11:05.529Z,10.53
2022-11-22T22:13:32.512Z,8.17
2022-11-22T22:16:01.453Z,8.03
2022-11-22T22:18:36.878Z,7.00
2022-11-22T22:21:05.913Z,6.97
2022-11-22T22:23:34.294Z,13.03
2022-11-22T22:26:02.230Z,8.83
2022-11-22T22:28:30.439Z,7.03
2022-11-22T22:31:11.157Z,10.57
2022-11-22T22:33:39.874Z,8.03
2022-11-22T22:36:08.079Z,9.20
2022-11-22T22:38:35.165Z,11.03
2022-11-22T22:41:04.175Z,9.40
2022-11-22T22:43:36.768Z,7.73
2022-11-22T22:46:06.665Z,12.50
2022-11-22T22:48:34.444Z,10.90
2022-11-22T22:51:11.348Z,9.00
2022-11-22T22:53:38.523Z,9.90
2022-11-22T22:56:07.142Z,10.43
2022-11-22T22:58:34.344Z,7.60
2022-11-22T23:01:21.246Z,11.73
2022-11-22T23:03:49.380Z,8.23
2022-11-22T23:06:16.357Z,7.27
2022-11-22T23:08:46.044Z,10.57
2022-11-22T23:11:13.525Z,9.23
2022-11-22T23:13:42.082Z,9.80
2022-11-22T23:16:11.201Z,10.83
2022-11-22T23:18:40.501Z,11.53
2022-11-22T23:21:08.886Z,8.37
2022-11-22T23:23:53.113Z,9.23
2022-11-22T23:26:36.124Z,7.60
2022-11-22T23:29:12.288Z,6.13
2022-11-22T23:31:39.361Z,8.00
2022-11-22T23:34:06.387Z,15.03
2022-11-22T23:36:39.017Z,11.70
2022-11-22T23:39:07.750Z,10.50
2022-11-22T23:41:34.834Z,6.20
2022-11-22T23:44:01.634Z,9.87
2022-11-22T23:46:29.151Z,4.30
2022-11-22T23:48:58.260Z,9.80
2022-11-22T23:51:26.433Z,10.63
2022-11-22T23:54:01.035Z,7.00
2022-11-22T23:56:29.102Z,8.07
2022-11-22T23:58:57.927Z,11.20
